createdAt,value
2019-04-07T00:00:44.502Z,35.63
2019-04-07T00:01:51.440Z,34.58
2019-04-07T00:02:57.090Z,33.18
2019-04-07T00:04:02.581Z,34.78
2019-04-07T00:05:13.040Z,35.65
2019-04-07T00:06:14.475Z,34.98
2019-04-07T00:07:20.090Z,35.03
2019-04-07T00:08:25.297Z,36.33
2019-04-07T00:09:30.362Z,35.23
2019-04-07T00:10:35.987Z,33.65
2019-04-07T00:11:40.924Z,35.52
2019-04-07T00:12:45.523Z,35.23
2019-04-07T00:13:51.787Z,35.17
2019-04-07T00:14:56.448Z,35.80
2019-04-07T00:16:01.274Z,35.23
2019-04-07T00:17:06.814Z,34.70
2019-04-07T00:18:11.763Z,35.45
2019-04-07T00:19:17.241Z,35.23
2019-04-07T00:20:22.045Z,34.40
2019-04-07T00:21:27.297Z,34.65
2019-04-07T00:22:32.386Z,34.08
2019-04-07T00:23:37.586Z,34.92
2019-04-07T00:24:42.484Z,35.03
2019-04-07T00:25:47.147Z,35.50
2019-04-07T00:26:52.516Z,35.08
2019-04-07T00:27:57.531Z,33.55
2019-04-07T00:29:02.435Z,35.73
2019-04-07T00:30:08.904Z,34.98
2019-04-07T00:31:13.501Z,35.73
2019-04-07T00:32:18.664Z,35.23
2019-04-07T00:33:24.118Z,35.28
2019-04-07T00:34:28.933Z,36.65
2019-04-07T00:35:33.674Z,36.05
2019-04-07T00:36:38.661Z,35.58
2019-04-07T00:37:43.993Z,36.60
2019-04-07T00:38:48.943Z,36.75
2019-04-07T00:39:54.142Z,34.98
2019-04-07T00:40:59.251Z,36.68
2019-04-07T00:42:04.182Z,35.55
2019-04-07T00:43:09.980Z,34.58
2019-04-07T00:44:14.891Z,34.70
2019-04-07T00:45:20.636Z,35.58
2019-04-07T00:46:25.878Z,36.83
2019-04-07T00:47:31.192Z,35.70
2019-04-07T00:48:36.434Z,36.17
2019-04-07T00:49:42.191Z,36.85
2019-04-07T00:50:48.130Z,35.50
2019-04-07T00:51:54.307Z,35.98
2019-04-07T00:53:00.198Z,35.35
2019-04-07T00:54:05.073Z,37.73
2019-04-07T00:55:09.958Z,38.42
2019-04-07T00:56:15.780Z,36.20
2019-04-07T00:57:21.088Z,36.77
2019-04-07T00:58:26.888Z,36.75
2019-04-07T00:59:32.004Z,37.05
2019-04-07T01:00:38.080Z,36.65
2019-04-07T01:01:42.775Z,36.23
2019-04-07T01:02:47.503Z,36.55
2019-04-07T01:03:55.667Z,37.00
2019-04-07T01:05:00.342Z,37.48
2019-04-07T01:06:04.983Z,37.35
2019-04-07T01:07:10.292Z,37.60
2019-04-07T01:08:15.550Z,37.33
2019-04-07T01:09:20.416Z,37.05
2019-04-07T01:10:26.100Z,38.00
2019-04-07T01:11:30.590Z,36.10
2019-04-07T01:12:35.904Z,37.65
2019-04-07T01:13:40.830Z,37.38
2019-04-07T01:14:46.678Z,36.88
2019-04-07T01:15:51.426Z,36.98
2019-04-07T01:16:56.400Z,36.90
2019-04-07T01:18:02.124Z,35.65
2019-04-07T01:19:07.726Z,38.23
2019-04-07T01:20:12.701Z,37.55
2019-04-07T01:21:17.742Z,36.70
2019-04-07T01:22:23.246Z,37.83
2019-04-07T01:23:28.258Z,38.20
2019-04-07T01:24:34.073Z,37.42
2019-04-07T01:25:39.531Z,38.85
2019-04-07T01:26:44.725Z,37.50
2019-04-07T01:27:50.042Z,35.60
2019-04-07T01:28:55.441Z,36.33
2019-04-07T01:30:00.813Z,37.25
2019-04-07T01:31:07.125Z,37.17
2019-04-07T01:32:11.584Z,35.25
2019-04-07T01:33:16.526Z,36.98
2019-04-07T01:34:21.489Z,36.13
2019-04-07T01:35:26.781Z,36.33
2019-04-07T01:36:32.513Z,36.13
2019-04-07T01:37:37.861Z,35.83
2019-04-07T01:38:43.290Z,35.48
2019-04-07T01:39:48.326Z,35.98
2019-04-07T01:41:03.134Z,37.08
2019-04-07T01:42:30.167Z,37.78
2019-04-07T01:43:49.449Z,36.03
2019-04-07T01:45:12.735Z,35.80
2019-04-07T01:46:42.763Z,34.88
2019-04-07T01:47:57.019Z,34.38
2019-04-07T01:49:11.619Z,36.03
2019-04-07T01:50:25.513Z,36.05
2019-04-07T01:51:50.386Z,35.28
2019-04-07T01:53:20.351Z,34.85
2019-04-07T01:54:53.787Z,34.73
2019-04-07T01:56:08.158Z,35.60
2019-04-07T01:57:32.317Z,36.38
2019-04-07T01:59:12.175Z,36.85
2019-04-07T02:00:34.626Z,36.20
2019-04-07T02:01:57.119Z,35.20
2019-04-07T02:03:07.512Z,35.58
2019-04-07T02:04:23.692Z,35.52
2019-04-07T02:05:59.224Z,34.58
2019-04-07T02:07:22.661Z,35.73
2019-04-07T02:08:45.448Z,34.58
2019-04-07T02:10:15.204Z,34.92
2019-04-07T02:11:41.877Z,34.15
2019-04-07T02:13:04.350Z,35.75
2019-04-07T02:14:28.248Z,35.08
2019-04-07T02:15:52.682Z,33.48
2019-04-07T02:17:09.864Z,33.92
2019-04-07T02:18:23.457Z,33.73
2019-04-07T02:19:35.954Z,33.48
2019-04-07T02:21:13.037Z,32.28
2019-04-07T02:22:39.684Z,34.27
2019-04-07T02:23:57.597Z,32.95
2019-04-07T02:25:11.965Z,32.70
2019-04-07T02:26:23.628Z,32.85
2019-04-07T02:27:34.817Z,32.25
2019-04-07T02:29:10.483Z,33.25
2019-04-07T02:30:33.238Z,31.73
2019-04-07T02:32:09.750Z,32.98
2019-04-07T02:33:39.536Z,32.17
2019-04-07T02:34:50.949Z,32.25
2019-04-07T02:36:17.886Z,30.50
2019-04-07T02:37:36.984Z,34.18
2019-04-07T02:39:03.539Z,32.00
2019-04-07T02:40:26.708Z,32.08
2019-04-07T02:42:05.996Z,33.73
2019-04-07T02:43:24.166Z,32.83
2019-04-07T02:44:42.690Z,32.58
2019-04-07T02:46:05.857Z,32.63
2019-04-07T02:47:15.973Z,32.75
2019-04-07T02:48:46.733Z,32.50
2019-04-07T02:50:17.669Z,31.57
2019-04-07T02:51:34.366Z,32.17
2019-04-07T02:52:54.831Z,33.23
2019-04-07T02:54:17.621Z,33.23
2019-04-07T02:55:30.040Z,31.33
2019-04-07T02:57:09.896Z,32.15
2019-04-07T02:58:36.430Z,29.72
2019-04-07T02:59:48.558Z,29.70
2019-04-07T03:01:18.498Z,29.80
2019-04-07T03:02:31.928Z,30.85
2019-04-07T03:03:50.234Z,31.07
2019-04-07T03:05:06.442Z,29.85
2019-04-07T03:06:50.009Z,33.30
2019-04-07T03:08:01.597Z,30.82
2019-04-07T03:09:22.077Z,31.85
2019-04-07T03:10:48.739Z,31.12
2019-04-07T03:12:05.460Z,31.65
2019-04-07T03:13:27.133Z,31.68
2019-04-07T03:14:54.369Z,30.15
2019-04-07T03:16:11.914Z,32.20
2019-04-07T03:17:30.085Z,30.57
2019-04-07T03:18:40.818Z,30.08
2019-04-07T03:19:54.105Z,30.48
2019-04-07T03:21:19.448Z,31.17
2019-04-07T03:22:42.430Z,30.77
2019-04-07T03:24:06.381Z,31.12
2019-04-07T03:25:22.119Z,29.70
2019-04-07T03:26:49.087Z,30.10
2019-04-07T03:28:18.124Z,29.32
2019-04-07T03:29:49.323Z,29.80
2019-04-07T03:31:12.839Z,29.63
2019-04-07T03:32:40.026Z,29.48
2019-04-07T03:34:04.133Z,29.23
2019-04-07T03:35:20.951Z,29.40
2019-04-07T03:36:41.125Z,31.57
2019-04-07T03:38:00.930Z,30.23
2019-04-07T03:39:26.624Z,29.72
2019-04-07T03:40:44.107Z,31.07
2019-04-07T03:41:55.552Z,29.52
2019-04-07T03:43:09.389Z,29.82
2019-04-07T03:44:23.162Z,30.50
2019-04-07T03:46:02.469Z,30.27
2019-04-07T03:47:14.263Z,28.75
2019-04-07T03:48:41.598Z,31.95
2019-04-07T03:49:52.978Z,30.60
2019-04-07T03:51:06.787Z,32.25
2019-04-07T03:52:22.409Z,30.08
2019-04-07T03:53:46.180Z,30.00
2019-04-07T03:55:15.642Z,30.75
2019-04-07T03:56:39.889Z,30.25
2019-04-07T03:58:09.941Z,31.10
2019-04-07T03:59:33.398Z,31.15
2019-04-07T04:01:35.585Z,31.50
2019-04-07T04:03:02.613Z,30.40
2019-04-07T04:04:26.356Z,30.25
2019-04-07T04:05:53.865Z,30.82
2019-04-07T04:07:18.027Z,31.75
2019-04-07T04:08:26.935Z,31.07
2019-04-07T04:09:45.585Z,31.42
2019-04-07T04:11:09.570Z,30.90
2019-04-07T04:12:39.681Z,30.62
2019-04-07T04:14:04.584Z,29.57
2019-04-07T04:15:15.007Z,29.30
2019-04-07T04:16:25.727Z,30.17
2019-04-07T04:17:30.688Z,30.00
2019-04-07T04:18:35.528Z,29.77
2019-04-07T04:19:40.981Z,29.02
2019-04-07T04:20:46.409Z,27.73
2019-04-07T04:21:52.432Z,29.57
2019-04-07T04:22:58.263Z,29.65
2019-04-07T04:24:04.151Z,29.57
2019-04-07T04:25:10.718Z,29.60
2019-04-07T04:26:16.064Z,30.62
2019-04-07T04:27:21.526Z,31.42
2019-04-07T04:28:27.341Z,30.68
2019-04-07T04:29:33.224Z,31.40
2019-04-07T04:30:37.980Z,31.60
2019-04-07T04:31:43.414Z,31.40
2019-04-07T04:32:48.427Z,31.55
2019-04-07T04:33:54.460Z,31.77
2019-04-07T04:34:59.486Z,31.62
2019-04-07T04:36:04.550Z,31.05
2019-04-07T04:37:09.509Z,30.10
2019-04-07T04:38:14.437Z,30.65
2019-04-07T04:39:20.948Z,30.75
2019-04-07T04:40:26.338Z,31.57
2019-04-07T04:41:31.294Z,31.10
2019-04-07T04:42:35.971Z,31.37
2019-04-07T04:43:41.100Z,30.25
2019-04-07T04:44:46.359Z,30.25
2019-04-07T04:45:53.221Z,32.08
2019-04-07T04:46:58.606Z,31.73
2019-04-07T04:48:04.458Z,32.75
2019-04-07T04:49:09.269Z,29.77
2019-04-07T04:50:14.819Z,31.00
2019-04-07T04:51:19.963Z,33.00
2019-04-07T04:52:25.155Z,31.02
2019-04-07T04:53:30.850Z,30.85
2019-04-07T04:54:36.155Z,32.53
2019-04-07T04:55:40.964Z,31.87
2019-04-07T04:56:46.863Z,32.08
2019-04-07T04:57:51.580Z,32.45
2019-04-07T04:58:56.616Z,31.75
2019-04-07T05:00:01.897Z,33.00
2019-04-07T05:01:07.792Z,30.88
2019-04-07T05:02:12.250Z,32.05
2019-04-07T05:03:18.026Z,31.68
2019-04-07T05:04:24.068Z,34.67
2019-04-07T05:05:29.214Z,33.30
2019-04-07T05:06:34.723Z,32.60
2019-04-07T05:07:50.241Z,34.30
2019-04-07T05:08:46.857Z,34.10
2019-04-07T05:09:54.542Z,33.83
2019-04-07T05:10:58.843Z,34.43
2019-04-07T05:12:05.604Z,34.15
2019-04-07T05:13:10.559Z,32.83
2019-04-07T05:14:15.414Z,33.48
2019-04-07T05:15:21.019Z,31.80
2019-04-07T05:16:28.893Z,31.90
2019-04-07T05:17:33.781Z,31.23
2019-04-07T05:18:38.947Z,32.83
2019-04-07T05:19:44.352Z,31.77
2019-04-07T05:20:49.942Z,28.95
2019-04-07T05:21:54.932Z,30.82
2019-04-07T05:23:00.976Z,30.80
2019-04-07T05:24:06.819Z,30.90
2019-04-07T05:25:12.375Z,31.35
2019-04-07T05:26:17.918Z,30.32
2019-04-07T05:27:22.885Z,31.60
2019-04-07T05:28:28.666Z,30.65
2019-04-07T05:29:34.187Z,31.87
2019-04-07T05:30:39.235Z,31.95
2019-04-07T05:31:44.770Z,30.60
2019-04-07T05:32:49.962Z,30.95
2019-04-07T05:33:55.366Z,31.97
2019-04-07T05:35:01.052Z,31.17
2019-04-07T05:36:05.974Z,31.15
2019-04-07T05:37:11.499Z,31.82
2019-04-07T05:38:16.606Z,30.60
2019-04-07T05:39:21.753Z,30.85
2019-04-07T05:40:26.691Z,30.23
2019-04-07T05:41:31.343Z,31.02
2019-04-07T05:42:36.300Z,31.50
2019-04-07T05:43:41.531Z,32.05
2019-04-07T05:44:46.317Z,31.62
2019-04-07T05:45:51.524Z,30.10
2019-04-07T05:46:57.003Z,30.30
2019-04-07T05:48:02.135Z,32.98
2019-04-07T05:49:07.596Z,32.50
2019-04-07T05:50:12.318Z,30.70
2019-04-07T05:51:17.689Z,31.15
2019-04-07T05:52:22.793Z,32.30
2019-04-07T05:53:27.816Z,31.02
2019-04-07T05:54:32.853Z,31.37
2019-04-07T05:55:38.155Z,32.63
2019-04-07T05:56:43.715Z,31.60
2019-04-07T05:57:49.656Z,30.40
2019-04-07T05:58:54.935Z,31.73
2019-04-07T06:00:00.405Z,32.60
2019-04-07T06:01:05.368Z,32.17
2019-04-07T06:02:10.943Z,31.57
2019-04-07T06:03:16.505Z,31.52
2019-04-07T06:04:22.022Z,31.90
2019-04-07T06:05:27.118Z,31.30
2019-04-07T06:06:33.012Z,33.00
2019-04-07T06:07:38.260Z,32.03
2019-04-07T06:08:43.122Z,31.50
2019-04-07T06:09:51.267Z,33.10
2019-04-07T06:10:59.992Z,32.17
2019-04-07T06:12:05.998Z,32.40
2019-04-07T06:13:11.102Z,32.67
2019-04-07T06:14:16.488Z,32.20
2019-04-07T06:15:23.187Z,33.83
2019-04-07T06:16:28.820Z,33.02
2019-04-07T06:17:33.643Z,32.80
2019-04-07T06:18:38.832Z,32.98
2019-04-07T06:19:44.437Z,31.95
2019-04-07T06:20:50.372Z,33.05
2019-04-07T06:21:55.593Z,31.95
2019-04-07T06:23:00.378Z,32.30
2019-04-07T06:24:05.133Z,32.75
2019-04-07T06:25:11.021Z,31.33
2019-04-07T06:26:17.285Z,32.90
2019-04-07T06:27:22.789Z,30.70
2019-04-07T06:28:29.642Z,31.87
2019-04-07T06:29:34.540Z,29.90
2019-04-07T06:30:39.564Z,31.27
2019-04-07T06:31:44.759Z,31.70
2019-04-07T06:32:49.622Z,31.15
2019-04-07T06:33:55.189Z,30.62
2019-04-07T06:35:00.584Z,29.82
2019-04-07T06:36:05.662Z,30.00
2019-04-07T06:37:10.762Z,30.45
2019-04-07T06:38:16.409Z,28.55
2019-04-07T06:39:21.524Z,30.05
2019-04-07T06:40:27.310Z,30.45
2019-04-07T06:41:33.369Z,29.57
2019-04-07T06:42:40.437Z,29.63
2019-04-07T06:43:45.386Z,30.60
2019-04-07T06:44:52.210Z,29.02
2019-04-07T06:46:19.632Z,28.73
2019-04-07T06:47:30.812Z,26.95
2019-04-07T06:48:42.557Z,27.45
2019-04-07T06:50:18.983Z,26.40
2019-04-07T06:51:35.658Z,27.77
2019-04-07T06:53:17.461Z,28.32
2019-04-07T06:54:37.710Z,26.30
2019-04-07T06:56:20.738Z,26.60
2019-04-07T06:57:50.738Z,26.00
2019-04-07T06:59:14.992Z,25.95
2019-04-07T07:00:53.610Z,25.65
2019-04-07T07:02:14.128Z,25.23
2019-04-07T07:03:39.032Z,25.77
2019-04-07T07:05:13.604Z,26.37
2019-04-07T07:06:29.474Z,25.60
2019-04-07T07:07:54.033Z,25.52
2019-04-07T07:09:26.461Z,25.72
2019-04-07T07:10:38.863Z,24.67
2019-04-07T07:12:06.287Z,25.95
2019-04-07T07:13:29.864Z,24.65
2019-04-07T07:14:47.830Z,23.95
2019-04-07T07:16:17.479Z,25.12
2019-04-07T07:17:31.113Z,24.63
2019-04-07T07:18:58.750Z,24.67
2019-04-07T07:20:27.568Z,24.15
2019-04-07T07:21:55.637Z,24.02
2019-04-07T07:23:13.348Z,22.98
2019-04-07T07:24:22.581Z,22.52
2019-04-07T07:25:23.445Z,23.38
2019-04-07T07:26:32.949Z,24.18
2019-04-07T07:27:38.914Z,24.95
2019-04-07T07:28:43.874Z,24.43
2019-04-07T07:29:51.883Z,25.00
2019-04-07T07:30:56.500Z,25.65
2019-04-07T07:32:03.773Z,25.37
2019-04-07T07:33:10.856Z,25.15
2019-04-07T07:34:15.575Z,26.62
2019-04-07T07:35:22.277Z,25.85
2019-04-07T07:36:28.449Z,26.90
2019-04-07T07:37:33.407Z,25.00
2019-04-07T07:38:38.582Z,25.90
2019-04-07T07:39:45.119Z,25.10
2019-04-07T07:40:52.652Z,24.65
2019-04-07T07:41:58.342Z,25.37
2019-04-07T07:43:03.520Z,24.35
2019-04-07T07:44:09.597Z,24.65
2019-04-07T07:45:15.535Z,24.57
2019-04-07T07:46:22.841Z,25.43
2019-04-07T07:47:27.708Z,25.10
2019-04-07T07:48:32.401Z,24.63
2019-04-07T07:49:40.350Z,23.40
2019-04-07T07:50:44.618Z,23.92
2019-04-07T07:51:50.568Z,23.67
2019-04-07T07:52:56.163Z,24.07
2019-04-07T07:54:02.090Z,24.02
2019-04-07T07:55:07.235Z,22.82
2019-04-07T07:56:21.471Z,25.23
2019-04-07T07:57:27.274Z,23.47
2019-04-07T07:58:33.645Z,23.75
2019-04-07T07:59:40.228Z,23.83
2019-04-07T08:00:46.080Z,23.60
2019-04-07T08:01:51.679Z,23.52
2019-04-07T08:02:57.295Z,24.02
2019-04-07T08:04:03.482Z,23.87
2019-04-07T08:05:09.253Z,24.15
2019-04-07T08:06:15.027Z,23.73
2019-04-07T08:07:20.328Z,23.18
2019-04-07T08:08:25.689Z,23.67
2019-04-07T08:09:31.786Z,23.10
2019-04-07T08:10:37.581Z,23.05
2019-04-07T08:11:43.524Z,23.42
2019-04-07T08:12:49.600Z,24.63
2019-04-07T08:13:55.364Z,24.40
2019-04-07T08:15:00.718Z,23.38
2019-04-07T08:16:06.337Z,22.77
2019-04-07T08:17:12.294Z,23.02
2019-04-07T08:18:19.606Z,22.37
2019-04-07T08:19:27.864Z,23.55
2019-04-07T08:20:30.632Z,23.25
2019-04-07T08:21:35.770Z,22.15
2019-04-07T08:22:43.632Z,22.05
2019-04-07T08:23:48.178Z,21.45
2019-04-07T08:24:53.549Z,21.75
2019-04-07T08:25:59.108Z,21.07
2019-04-07T08:27:04.080Z,22.77
2019-04-07T08:28:09.304Z,22.05
2019-04-07T08:29:14.933Z,22.52
2019-04-07T08:30:19.906Z,21.87
2019-04-07T08:31:25.110Z,22.02
2019-04-07T08:32:32.277Z,20.88
2019-04-07T08:33:37.458Z,20.68
2019-04-07T08:34:42.657Z,20.65
2019-04-07T08:35:48.030Z,20.08
2019-04-07T08:36:53.257Z,20.85
2019-04-07T08:37:58.501Z,20.10
2019-04-07T08:39:20.852Z,20.80
2019-04-07T08:40:21.718Z,20.77
2019-04-07T08:41:27.830Z,19.80
2019-04-07T08:42:35.796Z,20.10
2019-04-07T08:43:42.937Z,20.92
2019-04-07T08:44:49.754Z,20.45
2019-04-07T08:45:56.919Z,20.02
2019-04-07T08:47:02.584Z,20.37
2019-04-07T08:48:08.967Z,19.37
2019-04-07T08:49:16.938Z,18.23
2019-04-07T08:50:22.780Z,17.82
2019-04-07T08:51:30.774Z,18.65
2019-04-07T08:52:38.533Z,19.07
2019-04-07T08:53:44.056Z,18.95
2019-04-07T08:54:51.346Z,18.02
2019-04-07T08:55:55.448Z,19.45
2019-04-07T08:57:00.238Z,18.55
2019-04-07T08:58:06.590Z,18.37
2019-04-07T08:59:15.855Z,18.20
2019-04-07T09:00:22.148Z,18.27
2019-04-07T09:01:29.612Z,17.92
2019-04-07T09:02:33.524Z,19.10
2019-04-07T09:03:38.832Z,19.52
2019-04-07T09:04:47.330Z,19.62
2019-04-07T09:05:50.324Z,19.40
2019-04-07T09:06:59.453Z,19.48
2019-04-07T09:08:05.547Z,19.87
2019-04-07T09:09:09.069Z,19.30
2019-04-07T09:10:19.911Z,19.40
2019-04-07T09:11:25.306Z,17.85
2019-04-07T09:12:31.360Z,17.80
2019-04-07T09:13:38.387Z,17.90
2019-04-07T09:14:43.993Z,17.48
2019-04-07T09:16:08.217Z,16.75
2019-04-07T09:17:31.570Z,17.45
2019-04-07T09:18:32.109Z,17.12
2019-04-07T09:19:54.801Z,16.20
2019-04-07T09:21:20.383Z,16.15
2019-04-07T09:22:53.810Z,16.15
2019-04-07T09:24:15.211Z,15.28
2019-04-07T09:25:40.709Z,15.78
2019-04-07T09:26:53.287Z,14.43
2019-04-07T09:28:17.896Z,15.00
2019-04-07T09:29:46.055Z,14.85
2019-04-07T09:31:22.237Z,14.38
2019-04-07T09:32:40.676Z,14.20
2019-04-07T09:34:04.465Z,14.05
2019-04-07T09:35:25.709Z,13.78
2019-04-07T09:36:40.743Z,13.90
2019-04-07T09:37:56.777Z,15.20
2019-04-07T09:39:39.480Z,13.38
2019-04-07T09:41:07.246Z,14.10
2019-04-07T09:42:27.964Z,13.80
2019-04-07T09:43:42.744Z,13.70
2019-04-07T09:45:09.564Z,13.05
2019-04-07T09:46:21.950Z,12.80
2019-04-07T09:47:46.845Z,12.43
2019-04-07T09:49:13.848Z,12.80
2019-04-07T09:50:37.541Z,12.93
2019-04-07T09:52:10.198Z,12.60
2019-04-07T09:53:34.980Z,13.53
2019-04-07T09:54:54.620Z,12.00
2019-04-07T09:56:17.292Z,12.60
2019-04-07T09:57:31.426Z,12.55
2019-04-07T09:59:01.457Z,11.38
2019-04-07T10:00:21.668Z,11.35
2019-04-07T10:01:39.996Z,10.75
2019-04-07T10:03:05.956Z,10.40
2019-04-07T10:04:18.270Z,10.48
2019-04-07T10:05:47.926Z,10.45
2019-04-07T10:07:18.357Z,10.08
2019-04-07T10:08:34.188Z,11.18
2019-04-07T10:10:04.551Z,11.05
2019-04-07T10:11:24.001Z,10.30
2019-04-07T10:12:36.468Z,8.63
2019-04-07T10:13:58.817Z,7.60
2019-04-07T10:15:19.935Z,7.17
2019-04-07T10:16:37.923Z,7.28
2019-04-07T10:17:52.017Z,7.37
2019-04-07T10:19:31.679Z,7.58
2019-04-07T10:20:52.737Z,7.30
2019-04-07T10:22:09.530Z,7.78
2019-04-07T10:23:42.977Z,7.47
2019-04-07T10:25:18.329Z,7.35
2019-04-07T10:26:40.734Z,6.80
2019-04-07T10:28:00.536Z,7.95
2019-04-07T10:29:27.588Z,8.03
2019-04-07T10:30:55.006Z,7.17
2019-04-07T10:32:18.947Z,7.65
2019-04-07T10:33:44.918Z,7.62
2019-04-07T10:35:12.467Z,6.40
2019-04-07T10:36:34.873Z,6.95
2019-04-07T10:38:00.720Z,7.00
2019-04-07T10:39:25.302Z,6.97
2019-04-07T10:40:55.567Z,6.33
2019-04-07T10:42:29.308Z,6.37
2019-04-07T10:43:45.164Z,6.53
2019-04-07T10:45:09.009Z,6.87
2019-04-07T10:46:36.240Z,7.00
2019-04-07T10:47:58.723Z,6.00
2019-04-07T10:49:10.405Z,6.25
2019-04-07T10:50:25.681Z,5.85
2019-04-07T10:51:52.465Z,6.50
2019-04-07T10:53:19.614Z,5.85
2019-04-07T10:54:45.155Z,5.70
2019-04-07T10:56:09.859Z,5.00
2019-04-07T10:57:36.715Z,5.40
2019-04-07T10:59:06.619Z,4.95
2019-04-07T11:00:34.139Z,5.50
2019-04-07T11:01:50.211Z,5.75
2019-04-07T11:03:14.140Z,5.65
2019-04-07T11:04:32.584Z,4.72
2019-04-07T11:05:46.981Z,5.45
2019-04-07T11:07:14.229Z,4.97
2019-04-07T11:08:40.027Z,5.05
2019-04-07T11:10:06.920Z,5.55
2019-04-07T11:11:30.319Z,5.17
2019-04-07T11:12:58.173Z,5.30
2019-04-07T11:14:13.479Z,4.85
2019-04-07T11:15:55.515Z,5.62
2019-04-07T11:17:10.127Z,5.25
2019-04-07T11:18:20.765Z,5.78
2019-04-07T11:19:47.816Z,5.60
2019-04-07T11:21:30.294Z,5.95
2019-04-07T11:22:53.173Z,5.22
2019-04-07T11:24:35.810Z,5.10
2019-04-07T11:26:06.948Z,5.37
2019-04-07T11:27:36.551Z,5.08
2019-04-07T11:28:57.199Z,5.05
2019-04-07T11:30:09.759Z,5.08
2019-04-07T11:31:19.676Z,5.17
2019-04-07T11:32:46.594Z,4.78
2019-04-07T11:33:59.012Z,5.35
2019-04-07T11:35:11.348Z,4.90
2019-04-07T11:36:27.104Z,4.90
2019-04-07T11:37:41.872Z,4.90
2019-04-07T11:38:51.721Z,4.75
2019-04-07T11:40:43.304Z,4.72
2019-04-07T11:41:54.762Z,4.97
2019-04-07T11:43:21.429Z,5.20
2019-04-07T11:44:35.710Z,4.25
2019-04-07T11:46:08.917Z,4.22
2019-04-07T11:47:28.630Z,4.42
2019-04-07T11:48:39.460Z,4.72
2019-04-07T11:49:51.340Z,5.28
2019-04-07T11:51:24.283Z,4.78
2019-04-07T11:52:35.269Z,5.00
2019-04-07T11:53:47.851Z,4.70
2019-04-07T11:55:05.312Z,4.50
2019-04-07T11:56:21.920Z,4.53
2019-04-07T11:58:09.868Z,4.83
2019-04-07T11:59:30.639Z,4.58
2019-04-07T12:00:48.806Z,4.50
2019-04-07T12:02:00.850Z,4.60
2019-04-07T12:03:26.859Z,4.40
2019-04-07T12:04:48.980Z,4.53
2019-04-07T12:06:14.237Z,4.95
2019-04-07T12:07:37.211Z,5.05
2019-04-07T12:09:00.200Z,4.80
2019-04-07T12:10:27.185Z,4.62
2019-04-07T12:11:50.445Z,4.65
2019-04-07T12:13:21.101Z,4.25
2019-04-07T12:14:52.445Z,4.83
2019-04-07T12:16:09.255Z,4.60
2019-04-07T12:17:33.976Z,4.10
2019-04-07T12:19:04.561Z,4.28
2019-04-07T12:20:16.327Z,4.37
2019-04-07T12:21:38.084Z,4.50
2019-04-07T12:23:22.924Z,4.75
2019-04-07T12:24:35.069Z,4.40
2019-04-07T12:25:57.642Z,4.60
2019-04-07T12:27:30.322Z,4.33
2019-04-07T12:28:50.419Z,4.40
2019-04-07T12:30:22.402Z,4.72
2019-04-07T12:31:45.241Z,4.85
2019-04-07T12:34:30.479Z,4.78
2019-04-07T12:36:09.434Z,4.72
2019-04-07T12:37:45.427Z,4.35
2019-04-07T12:39:18.857Z,4.80
2019-04-07T12:40:34.251Z,4.28
2019-04-07T12:41:59.098Z,4.50
2019-04-07T12:43:23.034Z,4.55
2019-04-07T12:44:50.810Z,4.72
2019-04-07T12:46:19.464Z,5.40
2019-04-07T12:48:01.513Z,4.60
2019-04-07T12:49:14.462Z,4.78
2019-04-07T12:50:51.135Z,5.30
2019-04-07T12:52:27.256Z,5.55
2019-04-07T12:54:01.819Z,5.35
2019-04-07T12:55:35.043Z,5.33
2019-04-07T12:57:02.508Z,5.10
2019-04-07T12:58:24.469Z,4.90
2019-04-07T12:59:52.923Z,4.95
2019-04-07T13:01:19.118Z,5.47
2019-04-07T13:02:28.533Z,5.40
2019-04-07T13:03:42.701Z,5.37
2019-04-07T13:05:16.598Z,5.10
2019-04-07T13:06:42.271Z,4.50
2019-04-07T13:08:05.950Z,4.92
2019-04-07T13:09:27.861Z,4.78
2019-04-07T13:10:41.655Z,5.00
2019-04-07T13:12:08.639Z,4.90
2019-04-07T13:13:35.347Z,4.83
2019-04-07T13:15:00.013Z,5.00
2019-04-07T13:16:26.246Z,4.70
2019-04-07T13:17:58.325Z,4.95
2019-04-07T13:19:21.690Z,4.80
2019-04-07T13:20:54.837Z,4.47
2019-04-07T13:22:13.934Z,4.80
2019-04-07T13:23:28.711Z,4.85
2019-04-07T13:24:58.248Z,4.78
2019-04-07T13:26:18.714Z,4.65
2019-04-07T13:27:52.115Z,4.40
2019-04-07T13:29:04.345Z,5.10
2019-04-07T13:30:23.577Z,4.92
2019-04-07T13:31:54.121Z,4.92
2019-04-07T13:33:28.399Z,4.70
2019-04-07T13:34:50.441Z,4.55
2019-04-07T13:36:20.402Z,4.70
2019-04-07T13:37:31.123Z,4.87
2019-04-07T13:38:47.952Z,4.75
2019-04-07T13:40:11.462Z,4.40
2019-04-07T13:41:38.652Z,4.75
2019-04-07T13:42:58.868Z,4.33
2019-04-07T13:44:23.161Z,4.72
2019-04-07T13:46:17.165Z,4.95
2019-04-07T13:47:42.079Z,5.20
2019-04-07T13:49:00.237Z,4.78
2019-04-07T13:50:40.658Z,5.22
2019-04-07T13:52:10.699Z,4.60
2019-04-07T13:53:34.022Z,5.10
2019-04-07T13:55:07.768Z,4.80
2019-04-07T13:56:42.020Z,4.12
2019-04-07T13:58:12.061Z,4.67
2019-04-07T13:59:39.291Z,4.55
2019-04-07T14:01:00.853Z,5.00
2019-04-07T14:02:15.457Z,4.78
2019-04-07T14:03:45.664Z,4.95
2019-04-07T14:05:18.291Z,4.50
2019-04-07T14:06:46.734Z,5.28
2019-04-07T14:08:04.265Z,4.70
2019-04-07T14:09:30.534Z,4.17
2019-04-07T14:10:57.938Z,4.97
2019-04-07T14:12:26.074Z,5.12
2019-04-07T14:13:52.471Z,5.10
2019-04-07T14:15:22.212Z,4.55
2019-04-07T14:16:48.762Z,4.60
2019-04-07T14:18:29.366Z,5.00
2019-04-07T14:19:59.255Z,4.80
2019-04-07T14:21:32.434Z,4.35
2019-04-07T14:22:55.581Z,4.70
2019-04-07T14:24:11.450Z,4.53
2019-04-07T14:25:28.818Z,4.95
2019-04-07T14:26:41.257Z,4.87
2019-04-07T14:28:03.678Z,4.72
2019-04-07T14:29:33.927Z,4.55
2019-04-07T14:30:46.975Z,5.15
2019-04-07T14:32:02.085Z,5.20
2019-04-07T14:33:31.786Z,5.05
2019-04-07T14:35:14.178Z,5.15
2019-04-07T14:36:46.711Z,5.70
2019-04-07T14:38:11.344Z,7.83
2019-04-07T14:39:32.500Z,5.47
2019-04-07T14:40:57.514Z,5.05
2019-04-07T14:42:30.552Z,4.92
2019-04-07T14:43:53.027Z,5.78
2019-04-07T14:45:12.242Z,5.28
2019-04-07T14:46:49.012Z,5.05
2019-04-07T14:48:03.353Z,4.70
2019-04-07T14:49:20.319Z,4.67
2019-04-07T14:50:34.799Z,4.80
2019-04-07T14:51:58.129Z,4.97
2019-04-07T14:53:35.487Z,4.55
2019-04-07T14:54:57.019Z,4.83
2019-04-07T14:56:18.629Z,5.20
2019-04-07T14:57:39.027Z,4.47
2019-04-07T14:59:06.587Z,5.03
2019-04-07T15:00:29.527Z,5.10
2019-04-07T15:01:55.713Z,4.83
2019-04-07T15:03:02.075Z,4.92
2019-04-07T15:04:07.024Z,4.95
2019-04-07T15:05:21.816Z,4.87
2019-04-07T15:06:29.205Z,4.78
2019-04-07T15:07:48.810Z,4.95
2019-04-07T15:09:07.216Z,4.97
2019-04-07T15:10:20.232Z,5.25
2019-04-07T15:11:29.753Z,4.60
2019-04-07T15:12:42.358Z,5.20
2019-04-07T15:13:47.484Z,5.25
2019-04-07T15:14:52.751Z,5.05
2019-04-07T15:15:58.226Z,5.30
2019-04-07T15:17:03.606Z,5.67
2019-04-07T15:18:08.345Z,5.62
2019-04-07T15:19:13.774Z,4.85
2019-04-07T15:20:18.434Z,5.50
2019-04-07T15:21:23.980Z,5.10
2019-04-07T15:22:30.994Z,5.78
2019-04-07T15:23:35.794Z,5.42
2019-04-07T15:24:41.141Z,5.55
2019-04-07T15:25:47.268Z,5.83
2019-04-07T15:26:53.865Z,5.95
2019-04-07T15:28:01.321Z,5.87
2019-04-07T15:29:09.293Z,5.85
2019-04-07T15:30:15.274Z,6.45
2019-04-07T15:31:20.785Z,5.42
2019-04-07T15:32:29.003Z,6.28
2019-04-07T15:33:34.142Z,6.95
2019-04-07T15:34:42.297Z,5.92
2019-04-07T15:35:53.380Z,6.22
2019-04-07T15:36:58.997Z,6.33
2019-04-07T15:38:04.189Z,6.58
2019-04-07T15:39:10.982Z,6.30
2019-04-07T15:40:15.403Z,7.03
2019-04-07T15:41:20.923Z,6.97
2019-04-07T15:42:35.197Z,7.33
2019-04-07T15:43:35.550Z,6.62
2019-04-07T15:44:42.205Z,6.20
2019-04-07T15:45:47.015Z,7.15
2019-04-07T15:46:53.381Z,6.90
2019-04-07T15:48:00.503Z,7.12
2019-04-07T15:49:06.696Z,6.95
2019-04-07T15:50:11.730Z,6.90
2019-04-07T15:51:17.543Z,6.80
2019-04-07T15:52:22.990Z,7.35
2019-04-07T15:53:27.962Z,6.95
2019-04-07T15:54:33.892Z,7.00
2019-04-07T15:55:47.594Z,6.92
2019-04-07T15:56:49.316Z,7.42
2019-04-07T15:57:54.933Z,7.30
2019-04-07T15:59:00.764Z,7.05
2019-04-07T16:00:06.169Z,6.97
2019-04-07T16:01:11.800Z,6.85
2019-04-07T16:02:17.276Z,6.95
2019-04-07T16:03:22.357Z,6.87
2019-04-07T16:04:29.301Z,7.37
2019-04-07T16:05:40.394Z,7.80
2019-04-07T16:06:41.876Z,7.12
2019-04-07T16:07:46.968Z,7.65
2019-04-07T16:08:52.050Z,7.22
2019-04-07T16:09:58.175Z,7.12
2019-04-07T16:11:03.780Z,6.95
2019-04-07T16:12:09.945Z,6.55
2019-04-07T16:13:15.232Z,6.85
2019-04-07T16:14:20.839Z,7.37
2019-04-07T16:15:26.157Z,7.40